Terminal Aerodrome Forecast
Issued by NWS Wakefield, VA

Home | Current Version | Previous Version | Text Only | Print | Product List | Glossary On
Versions: 1 2 3 4 5 6 7 8 9 10 11 12 13 14 15 16 17 18
000
FTUS41 KAKQ 300428 AAB
TAFRIC
TAF AMD
KRIC 300428Z 3004/3024 VRB04KT P6SM -RA BKN004 OVC012
     FM300700 VRB03KT 4SM -SHRADZ BR OVC002
     FM300900 36003KT 1SM -SHRADZ BR OVC002
     FM301400 02004KT 4SM -RA BR BKN005 OVC010=

USA.gov is the U.S. government's official web portal to all federal, state and local government web resources and services.